sensor_id;sensor_type;location;lat;lon;timestamp;P1;durP1;ratioP1;P2;durP2;ratioP2
15425;SDS011;7812;50.072;7.036;2022-10-31T00:01:13;12.77;;;4.97;;
15425;SDS011;7812;50.072;7.036;2022-10-31T00:03:42;9.23;;;4.67;;
15425;SDS011;7812;50.072;7.036;2022-10-31T00:06:07;8.67;;;4.60;;
15425;SDS011;7812;50.072;7.036;2022-10-31T00:08:33;7.80;;;4.90;;
15425;SDS011;7812;50.072;7.036;2022-10-31T00:10:59;9.70;;;5.17;;
15425;SDS011;7812;50.072;7.036;2022-10-31T00:13:25;6.87;;;5.17;;
15425;SDS011;7812;50.072;7.036;2022-10-31T00:15:51;10.30;;;4.37;;
15425;SDS011;7812;50.072;7.036;2022-10-31T00:18:17;9.93;;;4.67;;
15425;SDS011;7812;50.072;7.036;2022-10-31T00:20:42;13.00;;;4.93;;
15425;SDS011;7812;50.072;7.036;2022-10-31T00:23:08;7.47;;;4.30;;
15425;SDS011;7812;50.072;7.036;2022-10-31T00:25:36;7.90;;;4.40;;
15425;SDS011;7812;50.072;7.036;2022-10-31T00:28:03;9.00;;;5.27;;
15425;SDS011;7812;50.072;7.036;2022-10-31T00:30:30;4.27;;;3.83;;
15425;SDS011;7812;50.072;7.036;2022-10-31T00:32:56;8.13;;;4.20;;
15425;SDS011;7812;50.072;7.036;2022-10-31T00:35:21;8.80;;;4.87;;
15425;SDS011;7812;50.072;7.036;2022-10-31T00:37:47;9.53;;;4.50;;
15425;SDS011;7812;50.072;7.036;2022-10-31T00:40:13;5.83;;;3.40;;
15425;SDS011;7812;50.072;7.036;2022-10-31T00:42:39;7.33;;;4.10;;
15425;SDS011;7812;50.072;7.036;2022-10-31T00:45:07;8.23;;;4.43;;
15425;SDS011;7812;50.072;7.036;2022-10-31T00:47:33;8.23;;;4.77;;
15425;SDS011;7812;50.072;7.036;2022-10-31T00:49:59;12.07;;;4.90;;
15425;SDS011;7812;50.072;7.036;2022-10-31T00:52:25;11.77;;;4.80;;
15425;SDS011;7812;50.072;7.036;2022-10-31T00:54:50;10.40;;;4.60;;
15425;SDS011;7812;50.072;7.036;2022-10-31T00:57:16;11.23;;;4.77;;
15425;SDS011;7812;50.072;7.036;2022-10-31T00:59:42;7.53;;;4.60;;
15425;SDS011;7812;50.072;7.036;2022-10-31T01:02:07;8.20;;;4.63;;
15425;SDS011;7812;50.072;7.036;2022-10-31T01:04:33;9.77;;;5.03;;
15425;SDS011;7812;50.072;7.036;2022-10-31T01:06:59;9.50;;;4.50;;
15425;SDS011;7812;50.072;7.036;2022-10-31T01:09:24;6.90;;;4.00;;
15425;SDS011;7812;50.072;7.036;2022-10-31T01:11:50;7.87;;;4.30;;
15425;SDS011;7812;50.072;7.036;2022-10-31T01:14:16;9.93;;;4.67;;
15425;SDS011;7812;50.072;7.036;2022-10-31T01:16:41;11.20;;;5.00;;
15425;SDS011;7812;50.072;7.036;2022-10-31T01:19:07;9.13;;;4.50;;
15425;SDS011;7812;50.072;7.036;2022-10-31T01:21:33;9.73;;;4.43;;
15425;SDS011;7812;50.072;7.036;2022-10-31T01:23:58;6.70;;;4.10;;
15425;SDS011;7812;50.072;7.036;2022-10-31T01:26:27;9.20;;;4.43;;
15425;SDS011;7812;50.072;7.036;2022-10-31T01:28:56;6.70;;;4.17;;
15425;SDS011;7812;50.072;7.036;2022-10-31T01:31:25;7.87;;;4.73;;
15425;SDS011;7812;50.072;7.036;2022-10-31T01:33:53;6.40;;;4.47;;
15425;SDS011;7812;50.072;7.036;2022-10-31T01:36:20;7.90;;;4.37;;
15425;SDS011;7812;50.072;7.036;2022-10-31T01:38:48;8.70;;;5.07;;
15425;SDS011;7812;50.072;7.036;2022-10-31T01:41:15;10.17;;;4.57;;
15425;SDS011;7812;50.072;7.036;2022-10-31T01:43:48;7.30;;;4.57;;
15425;SDS011;7812;50.072;7.036;2022-10-31T01:46:19;7.50;;;4.50;;
15425;SDS011;7812;50.072;7.036;2022-10-31T01:48:53;7.30;;;4.10;;
15425;SDS011;7812;50.072;7.036;2022-10-31T01:51:21;9.17;;;4.83;;
15425;SDS011;7812;50.072;7.036;2022-10-31T01:53:50;7.83;;;4.47;;
15425;SDS011;7812;50.072;7.036;2022-10-31T01:56:19;7.40;;;4.10;;
15425;SDS011;7812;50.072;7.036;2022-10-31T01:58:45;10.43;;;4.63;;
15425;SDS011;7812;50.072;7.036;2022-10-31T02:01:12;11.43;;;4.97;;
15425;SDS011;7812;50.072;7.036;2022-10-31T02:03:39;9.97;;;4.57;;
15425;SDS011;7812;50.072;7.036;2022-10-31T02:06:10;7.30;;;4.30;;
15425;SDS011;7812;50.072;7.036;2022-10-31T02:08:46;8.43;;;4.67;;
15425;SDS011;7812;50.072;7.036;2022-10-31T02:11:11;4.73;;;3.80;;
15425;SDS011;7812;50.072;7.036;2022-10-31T02:13:37;10.70;;;4.80;;
15425;SDS011;7812;50.072;7.036;2022-10-31T02:16:03;12.47;;;5.33;;
15425;SDS011;7812;50.072;7.036;2022-10-31T02:18:29;6.17;;;4.20;;
15425;SDS011;7812;50.072;7.036;2022-10-31T02:32:21;7.80;;;4.40;;
15425;SDS011;7812;50.072;7.036;2022-10-31T02:34:58;9.63;;;4.90;;
15425;SDS011;7812;50.072;7.036;2022-10-31T02:37:37;6.23;;;3.50;;
15425;SDS011;7812;50.072;7.036;2022-10-31T02:40:17;7.60;;;4.30;;
15425;SDS011;7812;50.072;7.036;2022-10-31T02:43:11;5.73;;;4.00;;
15425;SDS011;7812;50.072;7.036;2022-10-31T02:46:08;6.93;;;4.23;;
15425;SDS011;7812;50.072;7.036;2022-10-31T02:48:32;10.77;;;4.50;;
15425;SDS011;7812;50.072;7.036;2022-10-31T02:51:02;8.53;;;4.50;;
15425;SDS011;7812;50.072;7.036;2022-10-31T02:53:33;9.00;;;4.90;;
15425;SDS011;7812;50.072;7.036;2022-10-31T02:58:26;7.30;;;4.20;;
15425;SDS011;7812;50.072;7.036;2022-10-31T03:06:57;11.47;;;4.57;;
15425;SDS011;7812;50.072;7.036;2022-10-31T03:09:33;7.67;;;4.13;;
15425;SDS011;7812;50.072;7.036;2022-10-31T03:14:40;8.60;;;4.20;;
15425;SDS011;7812;50.072;7.036;2022-10-31T03:17:09;12.90;;;4.80;;
15425;SDS011;7812;50.072;7.036;2022-10-31T03:19:46;13.47;;;4.57;;
15425;SDS011;7812;50.072;7.036;2022-10-31T03:22:17;8.87;;;5.10;;
15425;SDS011;7812;50.072;7.036;2022-10-31T03:24:44;7.83;;;4.33;;
15425;SDS011;7812;50.072;7.036;2022-10-31T03:27:14;7.50;;;4.43;;
15425;SDS011;7812;50.072;7.036;2022-10-31T03:29:43;8.97;;;4.70;;
15425;SDS011;7812;50.072;7.036;2022-10-31T03:32:14;5.93;;;4.43;;
15425;SDS011;7812;50.072;7.036;2022-10-31T03:34:46;6.23;;;4.57;;
15425;SDS011;7812;50.072;7.036;2022-10-31T03:37:14;6.07;;;4.80;;
15425;SDS011;7812;50.072;7.036;2022-10-31T03:39:44;8.17;;;4.67;;
15425;SDS011;7812;50.072;7.036;2022-10-31T03:42:13;9.90;;;4.67;;
15425;SDS011;7812;50.072;7.036;2022-10-31T03:44:53;9.33;;;5.13;;
15425;SDS011;7812;50.072;7.036;2022-10-31T03:47:20;8.23;;;4.50;;
15425;SDS011;7812;50.072;7.036;2022-10-31T03:49:46;11.27;;;4.60;;
15425;SDS011;7812;50.072;7.036;2022-10-31T03:52:15;10.43;;;5.20;;
15425;SDS011;7812;50.072;7.036;2022-10-31T03:54:44;8.50;;;5.23;;
15425;SDS011;7812;50.072;7.036;2022-10-31T03:59:44;11.40;;;4.47;;
15425;SDS011;7812;50.072;7.036;2022-10-31T04:02:14;7.90;;;5.17;;
15425;SDS011;7812;50.072;7.036;2022-10-31T04:04:43;7.97;;;4.90;;
15425;SDS011;7812;50.072;7.036;2022-10-31T04:07:09;8.17;;;4.43;;
15425;SDS011;7812;50.072;7.036;2022-10-31T04:09:37;6.43;;;4.33;;
15425;SDS011;7812;50.072;7.036;2022-10-31T04:12:06;9.40;;;4.77;;
15425;SDS011;7812;50.072;7.036;2022-10-31T04:14:37;6.77;;;5.10;;
15425;SDS011;7812;50.072;7.036;2022-10-31T04:17:05;8.93;;;5.13;;
15425;SDS011;7812;50.072;7.036;2022-10-31T04:19:37;7.57;;;4.47;;
15425;SDS011;7812;50.072;7.036;2022-10-31T04:22:03;9.07;;;4.57;;
15425;SDS011;7812;50.072;7.036;2022-10-31T04:24:29;6.80;;;4.20;;
15425;SDS011;7812;50.072;7.036;2022-10-31T04:26:54;8.63;;;4.43;;
15425;SDS011;7812;50.072;7.036;2022-10-31T04:29:20;7.60;;;4.47;;
15425;SDS011;7812;50.072;7.036;2022-10-31T04:31:46;5.80;;;3.90;;
15425;SDS011;7812;50.072;7.036;2022-10-31T04:34:11;7.97;;;4.30;;
15425;SDS011;7812;50.072;7.036;2022-10-31T04:36:37;10.03;;;4.30;;
15425;SDS011;7812;50.072;7.036;2022-10-31T04:39:03;9.57;;;5.23;;
15425;SDS011;7812;50.072;7.036;2022-10-31T04:41:29;9.43;;;4.63;;
15425;SDS011;7812;50.072;7.036;2022-10-31T04:43:55;6.60;;;4.60;;
15425;SDS011;7812;50.072;7.036;2022-10-31T04:46:20;10.00;;;4.43;;
15425;SDS011;7812;50.072;7.036;2022-10-31T04:48:46;6.67;;;4.77;;
15425;SDS011;7812;50.072;7.036;2022-10-31T04:51:12;7.50;;;4.87;;
15425;SDS011;7812;50.072;7.036;2022-10-31T04:53:38;9.90;;;4.67;;
15425;SDS011;7812;50.072;7.036;2022-10-31T04:56:03;7.87;;;4.73;;
15425;SDS011;7812;50.072;7.036;2022-10-31T04:58:29;7.33;;;4.43;;
15425;SDS011;7812;50.072;7.036;2022-10-31T05:00:55;6.27;;;4.20;;
15425;SDS011;7812;50.072;7.036;2022-10-31T05:03:21;8.90;;;4.60;;
15425;SDS011;7812;50.072;7.036;2022-10-31T05:05:47;5.83;;;4.43;;
15425;SDS011;7812;50.072;7.036;2022-10-31T05:08:13;8.23;;;4.30;;
15425;SDS011;7812;50.072;7.036;2022-10-31T05:10:39;6.07;;;4.33;;
15425;SDS011;7812;50.072;7.036;2022-10-31T05:13:05;13.07;;;5.47;;
15425;SDS011;7812;50.072;7.036;2022-10-31T05:15:31;6.50;;;4.40;;
15425;SDS011;7812;50.072;7.036;2022-10-31T05:17:57;6.63;;;4.67;;
15425;SDS011;7812;50.072;7.036;2022-10-31T05:20:26;9.43;;;4.93;;
15425;SDS011;7812;50.072;7.036;2022-10-31T05:22:54;8.00;;;4.70;;
15425;SDS011;7812;50.072;7.036;2022-10-31T05:25:21;10.20;;;4.50;;
15425;SDS011;7812;50.072;7.036;2022-10-31T05:27:50;10.63;;;4.80;;
15425;SDS011;7812;50.072;7.036;2022-10-31T05:30:22;7.47;;;4.77;;
15425;SDS011;7812;50.072;7.036;2022-10-31T05:32:51;9.30;;;5.17;;
15425;SDS011;7812;50.072;7.036;2022-10-31T05:35:20;7.77;;;4.80;;
15425;SDS011;7812;50.072;7.036;2022-10-31T05:37:48;11.13;;;4.83;;
15425;SDS011;7812;50.072;7.036;2022-10-31T05:40:14;9.40;;;4.87;;
15425;SDS011;7812;50.072;7.036;2022-10-31T05:42:41;8.77;;;4.40;;
15425;SDS011;7812;50.072;7.036;2022-10-31T05:45:09;9.57;;;5.17;;
15425;SDS011;7812;50.072;7.036;2022-10-31T05:47:36;8.87;;;4.83;;
15425;SDS011;7812;50.072;7.036;2022-10-31T05:50:02;9.73;;;4.80;;
15425;SDS011;7812;50.072;7.036;2022-10-31T05:52:28;6.80;;;4.20;;
15425;SDS011;7812;50.072;7.036;2022-10-31T05:54:54;12.10;;;4.80;;
15425;SDS011;7812;50.072;7.036;2022-10-31T05:57:20;6.80;;;4.23;;
15425;SDS011;7812;50.072;7.036;2022-10-31T05:59:45;7.97;;;4.73;;
15425;SDS011;7812;50.072;7.036;2022-10-31T06:02:11;6.87;;;5.10;;
15425;SDS011;7812;50.072;7.036;2022-10-31T06:04:37;16.67;;;4.97;;
15425;SDS011;7812;50.072;7.036;2022-10-31T06:07:02;10.57;;;4.87;;
15425;SDS011;7812;50.072;7.036;2022-10-31T06:09:28;6.90;;;4.73;;
15425;SDS011;7812;50.072;7.036;2022-10-31T06:11:54;10.63;;;4.93;;
15425;SDS011;7812;50.072;7.036;2022-10-31T06:14:19;11.57;;;4.67;;
15425;SDS011;7812;50.072;7.036;2022-10-31T06:16:45;8.17;;;5.23;;
15425;SDS011;7812;50.072;7.036;2022-10-31T06:19:11;6.30;;;4.80;;
15425;SDS011;7812;50.072;7.036;2022-10-31T06:21:36;7.67;;;4.57;;
15425;SDS011;7812;50.072;7.036;2022-10-31T06:24:02;8.80;;;4.97;;
15425;SDS011;7812;50.072;7.036;2022-10-31T06:26:28;6.80;;;4.40;;
15425;SDS011;7812;50.072;7.036;2022-10-31T06:28:54;9.90;;;4.63;;
15425;SDS011;7812;50.072;7.036;2022-10-31T06:31:19;9.20;;;4.63;;
15425;SDS011;7812;50.072;7.036;2022-10-31T06:33:45;9.50;;;4.87;;
15425;SDS011;7812;50.072;7.036;2022-10-31T06:36:10;7.77;;;4.03;;
15425;SDS011;7812;50.072;7.036;2022-10-31T06:38:36;8.30;;;4.90;;
15425;SDS011;7812;50.072;7.036;2022-10-31T06:41:05;8.23;;;4.60;;
15425;SDS011;7812;50.072;7.036;2022-10-31T06:43:31;5.00;;;4.20;;
15425;SDS011;7812;50.072;7.036;2022-10-31T06:45:57;7.87;;;4.70;;
15425;SDS011;7812;50.072;7.036;2022-10-31T06:48:27;7.57;;;4.40;;
15425;SDS011;7812;50.072;7.036;2022-10-31T06:50:53;10.13;;;5.50;;
15425;SDS011;7812;50.072;7.036;2022-10-31T06:53:22;8.27;;;4.40;;
15425;SDS011;7812;50.072;7.036;2022-10-31T06:55:47;6.43;;;4.60;;
15425;SDS011;7812;50.072;7.036;2022-10-31T06:58:13;11.57;;;4.43;;
15425;SDS011;7812;50.072;7.036;2022-10-31T07:00:39;6.20;;;4.27;;
15425;SDS011;7812;50.072;7.036;2022-10-31T07:03:05;6.40;;;4.43;;
15425;SDS011;7812;50.072;7.036;2022-10-31T07:05:35;7.93;;;4.53;;
15425;SDS011;7812;50.072;7.036;2022-10-31T07:08:02;11.03;;;4.73;;
15425;SDS011;7812;50.072;7.036;2022-10-31T07:10:30;6.70;;;4.57;;
15425;SDS011;7812;50.072;7.036;2022-10-31T07:12:58;8.13;;;4.67;;
15425;SDS011;7812;50.072;7.036;2022-10-31T07:15:29;8.90;;;4.20;;
15425;SDS011;7812;50.072;7.036;2022-10-31T07:18:04;8.80;;;4.03;;
15425;SDS011;7812;50.072;7.036;2022-10-31T07:20:31;10.50;;;4.40;;
15425;SDS011;7812;50.072;7.036;2022-10-31T07:22:58;8.97;;;4.27;;
15425;SDS011;7812;50.072;7.036;2022-10-31T07:25:24;11.17;;;4.20;;
15425;SDS011;7812;50.072;7.036;2022-10-31T07:27:50;7.77;;;4.30;;
15425;SDS011;7812;50.072;7.036;2022-10-31T07:30:16;8.00;;;4.10;;
15425;SDS011;7812;50.072;7.036;2022-10-31T07:32:44;6.07;;;4.00;;
15425;SDS011;7812;50.072;7.036;2022-10-31T07:35:12;5.80;;;3.97;;
15425;SDS011;7812;50.072;7.036;2022-10-31T07:37:41;9.20;;;4.13;;
15425;SDS011;7812;50.072;7.036;2022-10-31T07:40:07;7.73;;;4.03;;
15425;SDS011;7812;50.072;7.036;2022-10-31T07:42:34;6.50;;;4.00;;
15425;SDS011;7812;50.072;7.036;2022-10-31T07:45:01;6.67;;;3.80;;
15425;SDS011;7812;50.072;7.036;2022-10-31T07:47:27;11.33;;;4.50;;
15425;SDS011;7812;50.072;7.036;2022-10-31T07:49:53;8.83;;;4.03;;
15425;SDS011;7812;50.072;7.036;2022-10-31T07:52:18;10.20;;;4.13;;
15425;SDS011;7812;50.072;7.036;2022-10-31T07:54:44;5.50;;;3.93;;
15425;SDS011;7812;50.072;7.036;2022-10-31T07:57:10;9.63;;;4.30;;
15425;SDS011;7812;50.072;7.036;2022-10-31T07:59:35;8.70;;;3.93;;
15425;SDS011;7812;50.072;7.036;2022-10-31T08:02:01;6.03;;;4.07;;
15425;SDS011;7812;50.072;7.036;2022-10-31T08:04:27;6.53;;;3.63;;
15425;SDS011;7812;50.072;7.036;2022-10-31T08:06:53;7.27;;;4.37;;
15425;SDS011;7812;50.072;7.036;2022-10-31T08:09:19;6.53;;;3.40;;
15425;SDS011;7812;50.072;7.036;2022-10-31T08:11:45;9.70;;;3.70;;
15425;SDS011;7812;50.072;7.036;2022-10-31T08:14:11;7.47;;;3.90;;
15425;SDS011;7812;50.072;7.036;2022-10-31T08:16:37;10.70;;;3.53;;
15425;SDS011;7812;50.072;7.036;2022-10-31T08:19:02;5.37;;;4.10;;
15425;SDS011;7812;50.072;7.036;2022-10-31T08:21:28;6.03;;;3.97;;
15425;SDS011;7812;50.072;7.036;2022-10-31T08:23:54;6.00;;;3.67;;
15425;SDS011;7812;50.072;7.036;2022-10-31T08:26:19;8.07;;;3.30;;
15425;SDS011;7812;50.072;7.036;2022-10-31T08:28:45;7.93;;;3.90;;
15425;SDS011;7812;50.072;7.036;2022-10-31T08:31:11;10.13;;;3.87;;
15425;SDS011;7812;50.072;7.036;2022-10-31T08:33:37;9.13;;;4.20;;
15425;SDS011;7812;50.072;7.036;2022-10-31T08:36:02;7.57;;;3.57;;
15425;SDS011;7812;50.072;7.036;2022-10-31T08:38:28;9.13;;;3.90;;
15425;SDS011;7812;50.072;7.036;2022-10-31T08:40:54;7.90;;;3.23;;
15425;SDS011;7812;50.072;7.036;2022-10-31T08:43:20;4.33;;;3.60;;
15425;SDS011;7812;50.072;7.036;2022-10-31T08:45:47;4.90;;;3.53;;
15425;SDS011;7812;50.072;7.036;2022-10-31T08:48:14;7.93;;;4.00;;
15425;SDS011;7812;50.072;7.036;2022-10-31T08:50:41;6.83;;;3.73;;
15425;SDS011;7812;50.072;7.036;2022-10-31T08:53:12;9.07;;;4.00;;
15425;SDS011;7812;50.072;7.036;2022-10-31T08:55:44;4.97;;;3.50;;
15425;SDS011;7812;50.072;7.036;2022-10-31T08:58:14;7.40;;;3.40;;
15425;SDS011;7812;50.072;7.036;2022-10-31T09:00:42;8.53;;;3.87;;
15425;SDS011;7812;50.072;7.036;2022-10-31T09:03:10;6.40;;;3.50;;
15425;SDS011;7812;50.072;7.036;2022-10-31T09:05:42;6.77;;;3.37;;
15425;SDS011;7812;50.072;7.036;2022-10-31T09:08:08;8.47;;;4.30;;
15425;SDS011;7812;50.072;7.036;2022-10-31T09:10:35;9.13;;;4.37;;
15425;SDS011;7812;50.072;7.036;2022-10-31T09:13:04;6.73;;;3.30;;
15425;SDS011;7812;50.072;7.036;2022-10-31T09:15:32;9.97;;;4.30;;
15425;SDS011;7812;50.072;7.036;2022-10-31T09:17:59;8.63;;;4.47;;
15425;SDS011;7812;50.072;7.036;2022-10-31T09:20:25;7.27;;;3.90;;
15425;SDS011;7812;50.072;7.036;2022-10-31T09:22:56;8.77;;;4.07;;
15425;SDS011;7812;50.072;7.036;2022-10-31T09:25:23;5.67;;;3.77;;
15425;SDS011;7812;50.072;7.036;2022-10-31T09:27:49;6.30;;;4.00;;
15425;SDS011;7812;50.072;7.036;2022-10-31T09:30:17;8.70;;;4.00;;
15425;SDS011;7812;50.072;7.036;2022-10-31T09:32:43;5.23;;;3.67;;
15425;SDS011;7812;50.072;7.036;2022-10-31T09:35:09;5.00;;;3.83;;
15425;SDS011;7812;50.072;7.036;2022-10-31T09:37:35;6.43;;;3.30;;
15425;SDS011;7812;50.072;7.036;2022-10-31T09:40:01;7.07;;;3.80;;
15425;SDS011;7812;50.072;7.036;2022-10-31T09:50:57;7.87;;;3.53;;
15425;SDS011;7812;50.072;7.036;2022-10-31T09:55:56;5.90;;;3.83;;
15425;SDS011;7812;50.072;7.036;2022-10-31T09:58:25;9.73;;;3.93;;
15425;SDS011;7812;50.072;7.036;2022-10-31T10:00:53;8.53;;;4.10;;
15425;SDS011;7812;50.072;7.036;2022-10-31T10:08:46;6.80;;;3.30;;
15425;SDS011;7812;50.072;7.036;2022-10-31T10:27:46;6.23;;;3.53;;
15425;SDS011;7812;50.072;7.036;2022-10-31T10:31:14;7.90;;;3.47;;
15425;SDS011;7812;50.072;7.036;2022-10-31T10:39:15;9.57;;;3.80;;
15425;SDS011;7812;50.072;7.036;2022-10-31T10:41:46;6.60;;;3.17;;
15425;SDS011;7812;50.072;7.036;2022-10-31T10:44:32;7.03;;;3.50;;
15425;SDS011;7812;50.072;7.036;2022-10-31T10:47:17;6.27;;;3.43;;
15425;SDS011;7812;50.072;7.036;2022-10-31T10:50:03;7.23;;;3.27;;
15425;SDS011;7812;50.072;7.036;2022-10-31T10:52:46;10.30;;;3.97;;
15425;SDS011;7812;50.072;7.036;2022-10-31T10:56:00;10.20;;;3.70;;
15425;SDS011;7812;50.072;7.036;2022-10-31T10:58:36;8.07;;;3.63;;
15425;SDS011;7812;50.072;7.036;2022-10-31T11:01:08;7.30;;;4.10;;
15425;SDS011;7812;50.072;7.036;2022-10-31T11:03:37;7.77;;;3.97;;
15425;SDS011;7812;50.072;7.036;2022-10-31T11:06:03;8.10;;;3.70;;
15425;SDS011;7812;50.072;7.036;2022-10-31T11:13:59;7.00;;;3.40;;
15425;SDS011;7812;50.072;7.036;2022-10-31T11:21:40;7.10;;;3.27;;
15425;SDS011;7812;50.072;7.036;2022-10-31T11:26:36;8.40;;;3.30;;
15425;SDS011;7812;50.072;7.036;2022-10-31T11:29:09;6.80;;;3.40;;
15425;SDS011;7812;50.072;7.036;2022-10-31T11:31:39;7.33;;;3.60;;
15425;SDS011;7812;50.072;7.036;2022-10-31T11:34:07;6.80;;;3.30;;
15425;SDS011;7812;50.072;7.036;2022-10-31T11:36:42;8.83;;;3.40;;
15425;SDS011;7812;50.072;7.036;2022-10-31T11:39:16;10.20;;;5.33;;
15425;SDS011;7812;50.072;7.036;2022-10-31T11:41:47;7.30;;;3.63;;
15425;SDS011;7812;50.072;7.036;2022-10-31T11:44:19;8.70;;;4.03;;
15425;SDS011;7812;50.072;7.036;2022-10-31T11:46:53;9.43;;;3.57;;
15425;SDS011;7812;50.072;7.036;2022-10-31T11:49:34;6.73;;;3.50;;
15425;SDS011;7812;50.072;7.036;2022-10-31T11:52:05;8.70;;;3.90;;
15425;SDS011;7812;50.072;7.036;2022-10-31T11:54:44;8.73;;;4.00;;
15425;SDS011;7812;50.072;7.036;2022-10-31T11:59:52;5.30;;;3.70;;
15425;SDS011;7812;50.072;7.036;2022-10-31T12:02:19;5.40;;;3.00;;
15425;SDS011;7812;50.072;7.036;2022-10-31T12:05:06;5.00;;;3.23;;
15425;SDS011;7812;50.072;7.036;2022-10-31T12:07:57;7.93;;;3.03;;
15425;SDS011;7812;50.072;7.036;2022-10-31T12:10:24;5.83;;;3.27;;
15425;SDS011;7812;50.072;7.036;2022-10-31T12:15:31;9.00;;;3.30;;
15425;SDS011;7812;50.072;7.036;2022-10-31T12:29:27;7.27;;;2.70;;
15425;SDS011;7812;50.072;7.036;2022-10-31T12:45:13;7.33;;;2.93;;
15425;SDS011;7812;50.072;7.036;2022-10-31T12:59:44;9.77;;;3.63;;
15425;SDS011;7812;50.072;7.036;2022-10-31T13:04:44;8.67;;;5.00;;
15425;SDS011;7812;50.072;7.036;2022-10-31T13:07:32;9.37;;;3.63;;
15425;SDS011;7812;50.072;7.036;2022-10-31T13:10:00;9.87;;;3.20;;
15425;SDS011;7812;50.072;7.036;2022-10-31T13:12:26;8.03;;;3.87;;
15425;SDS011;7812;50.072;7.036;2022-10-31T13:14:55;6.87;;;3.40;;
15425;SDS011;7812;50.072;7.036;2022-10-31T13:19:49;6.90;;;3.27;;
15425;SDS011;7812;50.072;7.036;2022-10-31T13:22:22;5.23;;;3.10;;
15425;SDS011;7812;50.072;7.036;2022-10-31T13:27:29;4.83;;;3.30;;
15425;SDS011;7812;50.072;7.036;2022-10-31T13:30:17;8.33;;;3.10;;
15425;SDS011;7812;50.072;7.036;2022-10-31T13:32:52;5.50;;;3.30;;
15425;SDS011;7812;50.072;7.036;2022-10-31T13:38:01;4.90;;;2.90;;
15425;SDS011;7812;50.072;7.036;2022-10-31T13:43:29;6.43;;;3.10;;
15425;SDS011;7812;50.072;7.036;2022-10-31T13:46:02;4.03;;;2.77;;
15425;SDS011;7812;50.072;7.036;2022-10-31T13:48:46;6.23;;;3.27;;
15425;SDS011;7812;50.072;7.036;2022-10-31T13:51:12;11.47;;;3.70;;
15425;SDS011;7812;50.072;7.036;2022-10-31T13:56:30;5.13;;;3.10;;
15425;SDS011;7812;50.072;7.036;2022-10-31T14:01:45;7.37;;;3.13;;
15425;SDS011;7812;50.072;7.036;2022-10-31T14:12:33;8.73;;;3.67;;
15425;SDS011;7812;50.072;7.036;2022-10-31T14:15:03;7.13;;;3.00;;
15425;SDS011;7812;50.072;7.036;2022-10-31T14:17:31;9.60;;;2.90;;
15425;SDS011;7812;50.072;7.036;2022-10-31T14:22:35;4.93;;;3.07;;
15425;SDS011;7812;50.072;7.036;2022-10-31T14:27:51;6.67;;;3.67;;
15425;SDS011;7812;50.072;7.036;2022-10-31T14:30:21;5.13;;;3.27;;
15425;SDS011;7812;50.072;7.036;2022-10-31T14:32:53;5.10;;;2.60;;
15425;SDS011;7812;50.072;7.036;2022-10-31T14:35:23;4.77;;;2.93;;
15425;SDS011;7812;50.072;7.036;2022-10-31T14:45:45;7.40;;;3.10;;
15425;SDS011;7812;50.072;7.036;2022-10-31T14:51:43;8.23;;;3.80;;
15425;SDS011;7812;50.072;7.036;2022-10-31T14:54:32;7.90;;;3.27;;
15425;SDS011;7812;50.072;7.036;2022-10-31T14:57:04;6.00;;;3.07;;
15425;SDS011;7812;50.072;7.036;2022-10-31T14:59:34;7.93;;;3.37;;
15425;SDS011;7812;50.072;7.036;2022-10-31T15:04:42;6.73;;;3.50;;
15425;SDS011;7812;50.072;7.036;2022-10-31T15:07:12;5.60;;;3.10;;
15425;SDS011;7812;50.072;7.036;2022-10-31T15:09:41;9.43;;;3.33;;
15425;SDS011;7812;50.072;7.036;2022-10-31T15:12:21;8.10;;;3.17;;
15425;SDS011;7812;50.072;7.036;2022-10-31T15:14:47;8.43;;;4.03;;
15425;SDS011;7812;50.072;7.036;2022-10-31T15:17:13;9.53;;;3.67;;
15425;SDS011;7812;50.072;7.036;2022-10-31T15:19:39;5.40;;;3.23;;
15425;SDS011;7812;50.072;7.036;2022-10-31T15:22:07;6.70;;;3.20;;
15425;SDS011;7812;50.072;7.036;2022-10-31T15:24:39;7.53;;;3.67;;
15425;SDS011;7812;50.072;7.036;2022-10-31T15:27:05;8.93;;;4.50;;
15425;SDS011;7812;50.072;7.036;2022-10-31T15:32:27;7.93;;;3.70;;
15425;SDS011;7812;50.072;7.036;2022-10-31T15:34:54;8.00;;;3.53;;
15425;SDS011;7812;50.072;7.036;2022-10-31T15:37:23;7.30;;;3.97;;
15425;SDS011;7812;50.072;7.036;2022-10-31T15:39:50;6.57;;;3.90;;
15425;SDS011;7812;50.072;7.036;2022-10-31T15:44:42;7.17;;;3.60;;
15425;SDS011;7812;50.072;7.036;2022-10-31T15:47:18;6.27;;;3.50;;
15425;SDS011;7812;50.072;7.036;2022-10-31T15:49:48;8.37;;;3.90;;
15425;SDS011;7812;50.072;7.036;2022-10-31T15:55:17;8.60;;;3.97;;
15425;SDS011;7812;50.072;7.036;2022-10-31T15:57:47;5.17;;;3.20;;
15425;SDS011;7812;50.072;7.036;2022-10-31T16:00:31;6.87;;;3.83;;
15425;SDS011;7812;50.072;7.036;2022-10-31T16:05:48;10.00;;;3.90;;
15425;SDS011;7812;50.072;7.036;2022-10-31T16:08:25;8.17;;;3.43;;
15425;SDS011;7812;50.072;7.036;2022-10-31T16:13:32;5.40;;;3.63;;
15425;SDS011;7812;50.072;7.036;2022-10-31T16:16:00;12.13;;;4.43;;
15425;SDS011;7812;50.072;7.036;2022-10-31T16:18:29;7.90;;;3.77;;
15425;SDS011;7812;50.072;7.036;2022-10-31T16:21:02;9.03;;;4.07;;
15425;SDS011;7812;50.072;7.036;2022-10-31T16:23:29;8.50;;;4.03;;
15425;SDS011;7812;50.072;7.036;2022-10-31T16:25:55;9.23;;;4.43;;
15425;SDS011;7812;50.072;7.036;2022-10-31T16:28:22;9.93;;;4.10;;
15425;SDS011;7812;50.072;7.036;2022-10-31T16:30:50;7.37;;;3.73;;
15425;SDS011;7812;50.072;7.036;2022-10-31T16:35:49;12.27;;;4.57;;
15425;SDS011;7812;50.072;7.036;2022-10-31T16:38:15;6.10;;;3.77;;
15425;SDS011;7812;50.072;7.036;2022-10-31T16:40:41;11.20;;;4.50;;
15425;SDS011;7812;50.072;7.036;2022-10-31T16:43:09;9.60;;;4.40;;
15425;SDS011;7812;50.072;7.036;2022-10-31T16:45:37;12.07;;;5.37;;
15425;SDS011;7812;50.072;7.036;2022-10-31T16:48:12;10.67;;;4.20;;
15425;SDS011;7812;50.072;7.036;2022-10-31T16:50:40;7.77;;;4.10;;
15425;SDS011;7812;50.072;7.036;2022-10-31T16:53:09;9.53;;;4.60;;
15425;SDS011;7812;50.072;7.036;2022-10-31T16:55:55;5.67;;;4.07;;
15425;SDS011;7812;50.072;7.036;2022-10-31T16:58:29;8.97;;;4.80;;
15425;SDS011;7812;50.072;7.036;2022-10-31T17:00:58;10.80;;;5.33;;
15425;SDS011;7812;50.072;7.036;2022-10-31T17:03:24;13.10;;;4.53;;
15425;SDS011;7812;50.072;7.036;2022-10-31T17:05:51;6.17;;;4.50;;
15425;SDS011;7812;50.072;7.036;2022-10-31T17:08:17;9.37;;;4.53;;
15425;SDS011;7812;50.072;7.036;2022-10-31T17:10:43;9.60;;;4.33;;
15425;SDS011;7812;50.072;7.036;2022-10-31T17:13:13;6.97;;;4.37;;
15425;SDS011;7812;50.072;7.036;2022-10-31T17:15:46;9.30;;;5.07;;
15425;SDS011;7812;50.072;7.036;2022-10-31T17:18:14;8.10;;;4.13;;
15425;SDS011;7812;50.072;7.036;2022-10-31T17:20:41;10.23;;;4.23;;
15425;SDS011;7812;50.072;7.036;2022-10-31T17:23:08;9.07;;;4.70;;
15425;SDS011;7812;50.072;7.036;2022-10-31T17:25:35;7.87;;;4.97;;
15425;SDS011;7812;50.072;7.036;2022-10-31T17:28:01;11.40;;;4.80;;
15425;SDS011;7812;50.072;7.036;2022-10-31T17:30:27;7.80;;;4.60;;
15425;SDS011;7812;50.072;7.036;2022-10-31T17:32:53;7.87;;;4.90;;
15425;SDS011;7812;50.072;7.036;2022-10-31T17:35:19;8.47;;;4.40;;
15425;SDS011;7812;50.072;7.036;2022-10-31T17:37:46;7.83;;;5.00;;
15425;SDS011;7812;50.072;7.036;2022-10-31T17:40:13;7.77;;;4.80;;
15425;SDS011;7812;50.072;7.036;2022-10-31T17:42:42;9.13;;;5.53;;
15425;SDS011;7812;50.072;7.036;2022-10-31T17:45:13;5.90;;;3.90;;
15425;SDS011;7812;50.072;7.036;2022-10-31T17:47:38;10.63;;;4.37;;
15425;SDS011;7812;50.072;7.036;2022-10-31T17:50:04;7.23;;;4.20;;
15425;SDS011;7812;50.072;7.036;2022-10-31T17:52:30;8.57;;;5.27;;
15425;SDS011;7812;50.072;7.036;2022-10-31T17:54:56;6.77;;;4.33;;
15425;SDS011;7812;50.072;7.036;2022-10-31T17:57:21;11.70;;;6.03;;
15425;SDS011;7812;50.072;7.036;2022-10-31T17:59:47;12.80;;;9.10;;
15425;SDS011;7812;50.072;7.036;2022-10-31T18:02:13;10.50;;;7.80;;
15425;SDS011;7812;50.072;7.036;2022-10-31T18:04:38;11.13;;;6.57;;
15425;SDS011;7812;50.072;7.036;2022-10-31T18:07:05;9.27;;;6.77;;
15425;SDS011;7812;50.072;7.036;2022-10-31T18:09:31;8.70;;;6.30;;
15425;SDS011;7812;50.072;7.036;2022-10-31T18:11:57;9.73;;;5.97;;